createdAt,value
2022-09-11T00:01:25.757Z,1
2022-09-11T00:03:29.685Z,1
2022-09-11T00:05:26.275Z,1
2022-09-11T00:07:33.007Z,1
2022-09-11T00:09:24.987Z,1
2022-09-11T00:11:26.529Z,1
2022-09-11T00:13:29.519Z,1
2022-09-11T00:15:28.892Z,1
2022-09-11T00:17:26.673Z,1
2022-09-11T00:19:26.589Z,1
2022-09-11T00:21:25.788Z,1
2022-09-11T00:23:29.691Z,1
2022-09-11T00:25:25.840Z,1
2022-09-11T00:27:26.235Z,1
2022-09-11T00:29:26.577Z,0
2022-09-11T00:31:25.920Z,0.1
2022-09-11T00:33:26.441Z,1
2022-09-11T00:35:29.795Z,1
2022-09-11T00:37:24.878Z,1
2022-09-11T00:39:25.850Z,1
2022-09-11T00:41:29.414Z,1
2022-09-11T00:43:33.035Z,1
2022-09-11T00:45:25.784Z,1
2022-09-11T00:47:25.860Z,1
2022-09-11T00:49:25.853Z,1
2022-09-11T00:51:29.910Z,1
2022-09-11T00:53:29.799Z,1
2022-09-11T00:55:26.290Z,1
2022-09-11T00:57:26.353Z,1
2022-09-11T00:59:25.880Z,1
2022-09-11T01:01:29.810Z,1
2022-09-11T01:03:26.186Z,1
2022-09-11T01:05:26.505Z,1
2022-09-11T01:07:33.194Z,1
2022-09-11T01:09:26.558Z,1
2022-09-11T01:11:25.847Z,1
2022-09-11T01:13:26.764Z,1
2022-09-11T01:15:29.002Z,1
2022-09-11T01:17:25.849Z,1
2022-09-11T01:19:26.567Z,1
2022-09-11T01:21:33.857Z,1
2022-09-11T01:23:25.867Z,1
2022-09-11T01:25:26.674Z,1
2022-09-11T01:27:26.803Z,1
2022-09-11T01:29:26.618Z,1
2022-09-11T01:31:26.592Z,1
2022-09-11T01:33:26.028Z,1
2022-09-11T01:35:26.630Z,1
2022-09-11T01:37:26.324Z,1
2022-09-11T01:39:26.662Z,1
2022-09-11T01:41:25.891Z,1
2022-09-11T01:43:29.708Z,1
2022-09-11T01:45:29.891Z,1
2022-09-11T01:47:29.921Z,1
2022-09-11T01:49:26.534Z,1
2022-09-11T01:51:29.815Z,1
2022-09-11T01:53:26.419Z,1
2022-09-11T01:55:26.597Z,1
2022-09-11T01:57:26.328Z,1
2022-09-11T01:59:26.555Z,1
2022-09-11T02:01:25.856Z,1
2022-09-11T02:03:29.913Z,1
2022-09-11T02:05:26.550Z,1
2022-09-11T02:07:24.193Z,1
2022-09-11T02:09:26.392Z,1
2022-09-11T02:11:25.773Z,1
2022-09-11T02:13:27.766Z,1
2022-09-11T02:15:26.277Z,1
2022-09-11T02:17:25.787Z,1
2022-09-11T02:19:26.354Z,1
2022-09-11T02:21:25.897Z,1
2022-09-11T02:23:26.453Z,1
2022-09-11T02:25:26.544Z,1
2022-09-11T02:27:25.882Z,1
2022-09-11T02:29:29.941Z,1
2022-09-11T02:31:26.545Z,1
2022-09-11T02:33:26.514Z,1
2022-09-11T02:35:26.609Z,1
2022-09-11T02:37:26.115Z,1
2022-09-11T02:39:33.061Z,1
2022-09-11T02:41:26.627Z,1
2022-09-11T02:43:26.355Z,1
2022-09-11T02:45:29.778Z,1
2022-09-11T02:47:29.710Z,1
2022-09-11T02:49:26.417Z,1
2022-09-11T02:51:33.263Z,1
2022-09-11T02:53:25.842Z,1
2022-09-11T02:55:26.335Z,1
2022-09-11T02:57:26.021Z,1
2022-09-11T02:59:29.881Z,1
2022-09-11T03:01:26.340Z,1
2022-09-11T03:03:26.477Z,1
2022-09-11T03:05:25.770Z,1
2022-09-11T03:07:25.865Z,1
2022-09-11T03:09:26.400Z,1
2022-09-11T03:11:26.340Z,1
2022-09-11T03:13:26.343Z,1
2022-09-11T03:15:26.294Z,1
2022-09-11T03:17:26.644Z,1
2022-09-11T03:19:26.041Z,1
2022-09-11T03:21:26.106Z,1
2022-09-11T03:23:26.092Z,1
2022-09-11T03:25:33.083Z,1
2022-09-11T03:27:29.858Z,1
2022-09-11T03:29:26.591Z,1
2022-09-11T03:31:26.326Z,1
2022-09-11T03:33:26.149Z,1
2022-09-11T03:35:26.506Z,1
2022-09-11T03:37:26.507Z,1
2022-09-11T03:39:34.649Z,1
2022-09-11T03:41:29.959Z,1
2022-09-11T03:43:28.948Z,1
2022-09-11T03:45:33.073Z,1
2022-09-11T03:47:25.914Z,1
2022-09-11T03:49:33.183Z,1
2022-09-11T03:51:32.987Z,1
2022-09-11T03:53:25.792Z,1
2022-09-11T03:55:29.895Z,1
2022-09-11T03:57:26.820Z,1
2022-09-11T03:59:29.950Z,1
2022-09-11T04:01:29.850Z,1
2022-09-11T04:03:26.557Z,0
2022-09-11T04:05:26.455Z,0
2022-09-11T04:07:25.873Z,0
2022-09-11T04:09:26.843Z,0
2022-09-11T04:11:37.295Z,0
2022-09-11T04:13:27.302Z,0.1
2022-09-11T04:15:26.267Z,0.2
2022-09-11T04:17:26.674Z,0.2
2022-09-11T04:19:27.195Z,0.3
2022-09-11T04:21:33.302Z,0.4
2022-09-11T04:23:26.792Z,0.4
2022-09-11T04:25:26.833Z,0.4
2022-09-11T04:27:29.852Z,0.9
2022-09-11T04:29:27.017Z,1.6
2022-09-11T04:31:26.810Z,2
2022-09-11T04:33:27.246Z,3.5
2022-09-11T04:35:32.925Z,6.7
2022-09-11T04:37:30.218Z,11
2022-09-11T04:39:30.159Z,11
2022-09-11T04:41:26.891Z,14.9
2022-09-11T04:43:30.300Z,17.3
2022-09-11T04:45:27.122Z,21.1
2022-09-11T04:47:26.200Z,22.2
2022-09-11T04:49:29.145Z,30
2022-09-11T04:51:28.931Z,36.6
2022-09-11T04:53:26.909Z,42.5
2022-09-11T04:55:28.254Z,38.5
2022-09-11T04:57:26.275Z,49.4
2022-09-11T04:59:26.682Z,49.4
2022-09-11T05:01:26.912Z,47
2022-09-11T05:03:27.199Z,54.6
2022-09-11T05:05:27.081Z,60.3
2022-09-11T05:07:33.354Z,54.6
2022-09-11T05:09:24.800Z,54.6
2022-09-11T05:11:26.879Z,51.9
2022-09-11T05:13:27.042Z,49.4
2022-09-11T05:15:26.731Z,60.3
2022-09-11T05:17:26.906Z,57.4
2022-09-11T05:19:26.186Z,60.3
2022-09-11T05:21:26.281Z,85.6
2022-09-11T05:23:27.044Z,104.6
2022-09-11T05:25:26.989Z,127.7
2022-09-11T05:27:30.419Z,121.5
2022-09-11T05:29:32.151Z,127.7
2022-09-11T05:31:30.375Z,70.1
2022-09-11T05:33:26.759Z,66.7
2022-09-11T05:35:29.247Z,66.7
2022-09-11T05:37:26.255Z,99.5
2022-09-11T05:39:26.724Z,210.6
2022-09-11T05:41:26.793Z,164
2022-09-11T05:43:26.257Z,221.4
2022-09-11T05:45:27.290Z,221.4
2022-09-11T05:47:27.037Z,257.2
2022-09-11T05:49:26.266Z,284.3
2022-09-11T05:51:26.925Z,284.3
2022-09-11T05:53:27.162Z,232.8
2022-09-11T05:55:35.218Z,221.4
2022-09-11T05:57:30.353Z,270.4
2022-09-11T05:59:27.455Z,270.4
2022-09-11T06:01:30.369Z,244.7
2022-09-11T06:03:29.476Z,221.4
2022-09-11T06:05:26.157Z,284.3
2022-09-11T06:07:33.391Z,244.7
2022-09-11T06:09:26.869Z,200.3
2022-09-11T06:11:26.750Z,244.7
2022-09-11T06:13:26.790Z,270.4
2022-09-11T06:15:43.243Z,424.1
2022-09-11T06:17:30.026Z,665.1
2022-09-11T06:19:33.391Z,468.7
2022-09-11T06:21:26.337Z,298.9
2022-09-11T06:23:30.279Z,403.4
2022-09-11T06:27:27.522Z,314.2
2022-09-11T06:29:29.413Z,221.4
2022-09-11T06:31:26.591Z,257.2
2022-09-11T06:33:26.259Z,330.3
2022-09-11T06:35:26.254Z,383.8
2022-09-11T06:37:27.693Z,365
2022-09-11T06:39:26.190Z,383.8
2022-09-11T06:41:26.582Z,492.7
2022-09-11T06:43:27.111Z,632.7
2022-09-11T06:45:27.188Z,943.9
2022-09-11T06:47:33.783Z,854.1
2022-09-11T06:49:33.499Z,699.2
2022-09-11T06:51:30.233Z,632.7
2022-09-11T06:53:30.074Z,699.2
2022-09-11T06:55:29.876Z,772.8
2022-09-11T06:57:30.368Z,854.1
2022-09-11T06:59:30.243Z,812.4
2022-09-11T07:01:27.356Z,772.8
2022-09-11T07:03:26.364Z,735.1
2022-09-11T07:05:26.872Z,735.1
2022-09-11T07:07:27.109Z,854.1
2022-09-11T07:09:27.524Z,772.8
2022-09-11T07:11:27.281Z,943.9
2022-09-11T07:13:27.209Z,699.2
2022-09-11T07:15:26.683Z,943.9
2022-09-11T07:17:27.098Z,1480.3
2022-09-11T07:19:30.283Z,1480.3
2022-09-11T07:21:30.448Z,1274.1
2022-09-11T07:23:27.225Z,1900.7
2022-09-11T07:25:27.351Z,1719.9
2022-09-11T07:27:26.391Z,1719.9
2022-09-11T07:29:27.335Z,1900.7
2022-09-11T07:31:27.750Z,2208.3
2022-09-11T07:33:32.510Z,2697.3
2022-09-11T07:35:26.839Z,3133.8
2022-09-11T07:37:27.626Z,2981
2022-09-11T07:39:27.141Z,3133.8
2022-09-11T07:41:27.267Z,2100.6
2022-09-11T07:43:27.621Z,1339.4
2022-09-11T07:45:27.456Z,1152.9
2022-09-11T07:47:26.612Z,1096.6
2022-09-11T07:49:30.724Z,1274.1
2022-09-11T07:51:26.449Z,943.9
2022-09-11T07:53:28.976Z,1043.1
2022-09-11T07:55:26.847Z,812.4
2022-09-11T07:57:27.324Z,897.8
2022-09-11T07:59:33.106Z,1096.6
2022-09-11T08:01:29.928Z,1152.9
2022-09-11T08:03:26.634Z,1408.1
2022-09-11T08:05:26.327Z,1212
2022-09-11T08:07:27.600Z,1096.6
2022-09-11T08:09:26.531Z,1408.1
2022-09-11T08:11:27.290Z,1408.1
2022-09-11T08:13:26.307Z,1636
2022-09-11T08:15:26.337Z,2321.6
2022-09-11T08:17:33.564Z,2565.7
2022-09-11T08:19:27.026Z,2697.3
2022-09-11T08:21:26.880Z,2321.6
2022-09-11T08:23:26.261Z,2321.6
2022-09-11T08:25:26.306Z,1636
2022-09-11T08:27:29.346Z,1274.1
2022-09-11T08:29:26.769Z,1152.9
2022-09-11T08:31:27.638Z,897.8
2022-09-11T08:33:27.412Z,992.3
2022-09-11T08:35:30.506Z,1043.1
2022-09-11T08:37:26.471Z,1274.1
2022-09-11T08:39:33.951Z,854.1
2022-09-11T08:41:26.855Z,943.9
2022-09-11T08:43:29.438Z,1556.2
2022-09-11T08:45:26.763Z,1808
2022-09-11T08:47:29.888Z,1998.2
2022-09-11T08:51:26.784Z,2835.6
2022-09-11T08:53:27.858Z,3294.5
2022-09-11T08:55:26.629Z,3827.6
2022-09-11T08:57:26.389Z,4914.8
2022-09-11T08:59:26.371Z,6634.2
2022-09-11T09:01:26.618Z,6002.9
2022-09-11T09:03:26.992Z,6634.2
2022-09-11T09:05:27.376Z,6002.9
2022-09-11T09:07:27.579Z,5431.7
2022-09-11T09:09:26.735Z,5431.7
2022-09-11T09:11:27.627Z,6002.9
2022-09-11T09:15:29.436Z,5166.8
2022-09-11T09:17:34.098Z,7332
2022-09-11T09:19:27.535Z,7332
2022-09-11T09:21:27.134Z,7332
2022-09-11T09:23:27.243Z,8103.1
2022-09-11T09:25:27.524Z,5710.1
2022-09-11T09:27:27.637Z,6310.7
2022-09-11T09:29:27.377Z,5431.7
2022-09-11T09:31:26.999Z,3827.6
2022-09-11T09:33:27.710Z,4230.2
2022-09-11T09:35:30.831Z,2835.6
2022-09-11T09:37:26.505Z,3294.5
2022-09-11T09:39:26.834Z,6002.9
2022-09-11T09:41:27.352Z,8103.1
2022-09-11T09:43:30.285Z,7332
2022-09-11T09:45:30.783Z,8518.5
2022-09-11T09:47:31.011Z,9414.4
2022-09-11T09:49:26.335Z,6310.7
2022-09-11T09:51:34.103Z,5431.7
2022-09-11T09:53:26.976Z,6634.2
2022-09-11T09:55:30.776Z,9897.1
2022-09-11T09:57:26.486Z,10404.6
2022-09-11T10:01:15.352Z,10938
2022-09-11T10:05:30.799Z,12708.2
2022-09-11T10:07:26.582Z,15521.8
2022-09-11T10:09:26.740Z,15521.8
2022-09-11T10:11:30.447Z,12708.2
2022-09-11T10:13:30.299Z,10404.6
2022-09-11T10:15:26.771Z,10938
2022-09-11T10:17:26.229Z,9414.4
2022-09-11T10:19:28.942Z,8103.1
2022-09-11T10:21:33.268Z,6634.2
2022-09-11T10:23:26.119Z,5431.7
2022-09-11T10:25:25.922Z,8955.3
2022-09-11T10:27:31.826Z,8103.1
2022-09-11T10:29:30.150Z,7707.9
2022-09-11T10:31:26.394Z,6974.4
2022-09-11T10:33:30.464Z,6974.4
2022-09-11T10:35:26.642Z,7332
2022-09-11T10:37:26.800Z,6634.2
2022-09-11T10:39:26.838Z,6974.4
2022-09-11T10:41:26.111Z,6974.4
2022-09-11T10:43:26.068Z,6634.2
2022-09-11T10:45:26.103Z,5710.1
2022-09-11T10:47:33.326Z,4675.1
2022-09-11T10:49:29.446Z,4914.8
2022-09-11T10:51:26.929Z,5166.8
2022-09-11T10:53:26.192Z,5431.7
2022-09-11T10:55:30.332Z,6310.7
2022-09-11T10:57:26.967Z,8103.1
2022-09-11T10:59:27.060Z,7332
2022-09-11T11:01:29.384Z,6974.4
2022-09-11T11:03:26.229Z,7332
2022-09-11T11:05:26.299Z,6634.2
2022-09-11T11:07:26.448Z,6634.2
2022-09-11T11:09:33.415Z,7332
2022-09-11T11:11:29.969Z,6634.2
2022-09-11T11:13:27.088Z,5710.1
2022-09-11T11:15:30.471Z,6310.7
2022-09-11T11:17:26.228Z,6974.4
2022-09-11T11:19:26.847Z,6310.7
2022-09-11T11:21:31.562Z,5710.1
2022-09-11T11:23:27.250Z,5431.7
2022-09-11T11:25:26.234Z,5166.8
2022-09-11T11:27:26.235Z,4675.1
2022-09-11T11:29:25.006Z,4675.1
2022-09-11T11:31:26.222Z,4914.8
2022-09-11T11:33:27.060Z,5431.7
2022-09-11T11:35:30.760Z,5431.7
2022-09-11T11:37:26.756Z,5710.1
2022-09-11T11:39:30.593Z,5710.1
2022-09-11T11:41:30.336Z,6002.9
2022-09-11T11:43:33.691Z,6634.2
2022-09-11T11:45:27.161Z,6634.2
2022-09-11T11:47:26.575Z,6974.4
2022-09-11T11:49:29.791Z,6634.2
2022-09-11T11:51:26.770Z,7707.9
2022-09-11T11:53:31.202Z,9414.4
2022-09-11T11:55:26.412Z,10404.6
2022-09-11T11:57:31.720Z,8518.5
2022-09-11T11:59:26.342Z,8518.5
2022-09-11T12:01:26.673Z,10404.6
2022-09-11T12:03:30.498Z,10404.6
2022-09-11T12:05:26.497Z,12088.4
2022-09-11T12:07:26.873Z,12088.4
2022-09-11T12:11:26.505Z,11498.8
2022-09-11T12:13:26.429Z,12708.2
2022-09-11T12:15:26.335Z,15521.8
2022-09-11T12:17:30.239Z,15521.8
2022-09-11T12:19:27.194Z,16317.6
2022-09-11T12:21:26.622Z,14764.8
2022-09-11T12:23:27.678Z,14764.8
2022-09-11T12:27:27.535Z,14764.8
2022-09-11T12:29:26.636Z,14764.8
2022-09-11T12:31:27.268Z,15521.8
2022-09-11T12:33:27.983Z,16317.6
2022-09-11T12:35:30.955Z,14044.7
2022-09-11T12:37:30.633Z,14044.7
2022-09-11T12:39:27.403Z,14044.7
2022-09-11T12:41:30.484Z,12708.2
2022-09-11T12:45:30.020Z,13359.7
2022-09-11T12:47:26.640Z,13359.7
2022-09-11T12:49:29.465Z,13359.7
2022-09-11T12:51:32.276Z,14044.7
2022-09-11T12:53:27.337Z,14764.8
2022-09-11T12:55:28.587Z,15521.8
2022-09-11T12:57:32.330Z,15521.8
2022-09-11T12:59:27.712Z,15521.8
2022-09-11T13:01:32.801Z,15521.8
2022-09-11T13:03:28.373Z,14764.8
2022-09-11T13:05:27.751Z,14044.7
2022-09-11T13:07:27.056Z,14044.7
2022-09-11T13:09:26.920Z,14764.8
2022-09-11T13:11:30.556Z,14044.7
2022-09-11T13:13:29.400Z,14044.7
2022-09-11T13:15:27.005Z,13359.7
2022-09-11T13:17:30.728Z,12088.4
2022-09-11T13:19:29.694Z,11498.8
2022-09-11T13:21:28.269Z,10404.6
2022-09-11T13:23:31.180Z,8518.5
2022-09-11T13:25:30.835Z,9414.4
2022-09-11T13:27:34.255Z,10938
2022-09-11T13:29:31.277Z,11498.8
2022-09-11T13:31:26.894Z,11498.8
2022-09-11T13:33:36.056Z,12088.4
2022-09-11T13:35:27.852Z,12088.4
2022-09-11T13:37:28.394Z,12088.4
2022-09-11T13:39:30.918Z,12088.4
2022-09-11T13:41:29.592Z,12088.4
2022-09-11T13:45:31.327Z,13359.7
2022-09-11T13:47:27.376Z,12088.4
2022-09-11T13:49:28.063Z,10938
2022-09-11T13:51:24.597Z,10404.6
2022-09-11T13:53:30.430Z,10938
2022-09-11T13:55:28.922Z,11498.8
2022-09-11T13:57:31.612Z,10938
2022-09-11T13:59:27.205Z,10938
2022-09-11T14:01:28.901Z,10938
2022-09-11T14:03:28.041Z,9897.1
2022-09-11T14:05:27.389Z,10938
2022-09-11T14:07:31.321Z,10404.6
2022-09-11T14:09:27.590Z,10938
2022-09-11T14:11:34.967Z,10404.6
2022-09-11T14:13:31.651Z,11498.8
2022-09-11T14:15:27.586Z,9414.4
2022-09-11T14:17:27.465Z,8955.3
2022-09-11T14:19:34.357Z,9414.4
2022-09-11T14:21:28.184Z,8103.1
2022-09-11T14:23:33.952Z,7707.9
2022-09-11T14:25:30.612Z,6974.4
2022-09-11T14:27:30.255Z,6002.9
2022-09-11T14:29:33.767Z,5431.7
2022-09-11T14:31:28.148Z,4914.8
2022-09-11T14:33:32.053Z,4675.1
2022-09-11T14:35:27.897Z,4447.1
2022-09-11T14:37:27.699Z,4230.2
2022-09-11T14:39:31.537Z,3641
2022-09-11T14:41:28.023Z,2981
2022-09-11T14:43:28.248Z,2697.3
2022-09-11T14:45:29.033Z,2565.7
2022-09-11T14:47:30.319Z,2565.7
2022-09-11T14:49:32.195Z,2565.7
2022-09-11T14:51:28.807Z,2565.7
2022-09-11T14:53:28.725Z,2440.6
2022-09-11T14:55:25.241Z,2321.6
2022-09-11T14:57:29.723Z,2321.6
2022-09-11T14:59:35.450Z,2321.6
2022-09-11T15:01:28.314Z,2208.3
2022-09-11T15:03:30.239Z,2321.6
2022-09-11T15:05:28.840Z,2208.3
2022-09-11T15:07:29.004Z,2208.3
2022-09-11T15:09:32.335Z,2100.6
2022-09-11T15:11:29.832Z,1998.2
2022-09-11T15:13:31.190Z,1900.7
2022-09-11T15:15:29.096Z,1808
2022-09-11T15:17:29.171Z,1719.9
2022-09-11T15:19:28.903Z,1636
2022-09-11T15:21:30.038Z,1556.2
2022-09-11T15:23:29.595Z,1556.2
2022-09-11T15:25:28.665Z,1480.3
2022-09-11T15:27:30.266Z,1480.3
2022-09-11T15:29:31.636Z,1480.3
2022-09-11T15:31:35.657Z,1480.3
2022-09-11T15:33:29.454Z,1480.3
2022-09-11T15:35:35.006Z,1480.3
2022-09-11T15:37:29.221Z,1480.3
2022-09-11T15:39:29.170Z,1480.3
2022-09-11T15:41:36.616Z,1480.3
2022-09-11T15:43:28.966Z,1480.3
2022-09-11T15:45:32.441Z,1480.3
2022-09-11T15:47:36.118Z,1480.3
2022-09-11T15:49:29.151Z,1480.3
2022-09-11T15:51:29.969Z,1480.3
2022-09-11T15:53:29.209Z,1556.2
2022-09-11T15:55:29.239Z,1556.2
2022-09-11T15:57:30.023Z,1636
2022-09-11T15:59:29.921Z,1719.9
2022-09-11T16:03:29.182Z,1719.9
2022-09-11T16:05:33.932Z,1719.9
2022-09-11T16:07:29.285Z,1719.9
2022-09-11T16:09:29.255Z,1636
2022-09-11T16:11:30.693Z,1556.2
2022-09-11T16:13:29.159Z,1480.3
2022-09-11T16:15:30.716Z,1480.3
2022-09-11T16:17:29.399Z,1480.3
2022-09-11T16:19:29.943Z,1408.1
2022-09-11T16:21:36.338Z,1339.4
2022-09-11T16:23:29.515Z,1339.4
2022-09-11T16:25:39.090Z,1339.4
2022-09-11T16:27:29.486Z,1274.1
2022-09-11T16:29:44.245Z,1212
2022-09-11T16:31:36.021Z,1212
2022-09-11T16:33:29.931Z,1152.9
2022-09-11T16:37:29.920Z,1096.6
2022-09-11T16:39:37.626Z,1043.1
2022-09-11T16:41:30.088Z,992.3
2022-09-11T16:43:34.503Z,943.9
2022-09-11T16:45:30.009Z,943.9
2022-09-11T16:47:30.576Z,897.8
2022-09-11T16:49:34.319Z,897.8
2022-09-11T16:51:31.263Z,854.1
2022-09-11T16:53:30.232Z,812.4
2022-09-11T16:55:37.708Z,699.2
2022-09-11T16:57:33.847Z,665.1
2022-09-11T16:59:30.374Z,632.7
2022-09-11T17:01:34.484Z,572.5
2022-09-11T17:03:36.200Z,544.6
2022-09-11T17:05:30.411Z,518
2022-09-11T17:07:30.427Z,468.7
2022-09-11T17:09:36.772Z,424.1
2022-09-11T17:11:30.367Z,383.8
2022-09-11T17:13:32.905Z,330.3
2022-09-11T17:15:30.592Z,298.9
2022-09-11T17:17:30.925Z,257.2
2022-09-11T17:19:30.869Z,232.8
2022-09-11T17:21:31.170Z,200.3
2022-09-11T17:23:32.511Z,181.3
2022-09-11T17:25:37.355Z,156
2022-09-11T17:27:34.495Z,134.3
2022-09-11T17:29:30.770Z,109.9
2022-09-11T17:31:37.613Z,94.6
2022-09-11T17:33:46.703Z,77.5
2022-09-11T17:38:39.383Z,51.9
2022-09-11T17:45:06.099Z,25.8
2022-09-11T17:50:13.996Z,12.8
2022-09-11T17:52:53.729Z,8.6
2022-09-11T17:57:24.130Z,3.7
2022-09-11T18:08:43.472Z,0.4
2022-09-11T18:17:57.040Z,0.2
2022-09-11T18:18:00.522Z,0.1
2022-09-11T18:21:49.917Z,0
2022-09-11T18:25:23.031Z,0
2022-09-11T18:27:14.079Z,1
2022-09-11T18:29:20.926Z,1
2022-09-11T18:31:14.532Z,1
2022-09-11T18:33:14.189Z,1
2022-09-11T18:35:17.618Z,1
2022-09-11T18:37:14.054Z,1
2022-09-11T18:39:13.988Z,1
2022-09-11T18:41:17.765Z,1
2022-09-11T18:43:14.170Z,1
2022-09-11T18:45:17.170Z,1
2022-09-11T18:47:17.619Z,1
2022-09-11T18:49:14.490Z,1
2022-09-11T18:51:14.018Z,1
2022-09-11T18:53:14.516Z,1
2022-09-11T18:55:17.274Z,1
2022-09-11T18:57:14.439Z,1
2022-09-11T18:59:17.616Z,1
2022-09-11T19:01:20.966Z,1
2022-09-11T19:03:16.220Z,1
2022-09-11T19:05:20.883Z,1
2022-09-11T19:07:14.050Z,1
2022-09-11T19:09:14.297Z,1
2022-09-11T19:11:15.315Z,1
2022-09-11T19:13:14.054Z,1
2022-09-11T19:15:14.234Z,1
2022-09-11T19:17:14.176Z,1
2022-09-11T19:19:17.763Z,1
2022-09-11T19:21:14.123Z,1
2022-09-11T19:23:14.401Z,1
2022-09-11T19:25:14.295Z,1
2022-09-11T19:27:14.062Z,1
2022-09-11T19:29:14.431Z,1
2022-09-11T19:31:14.120Z,1
2022-09-11T19:33:14.303Z,1
2022-09-11T19:35:17.736Z,1
2022-09-11T19:37:14.070Z,1
2022-09-11T19:39:14.065Z,1
2022-09-11T19:41:14.328Z,1
2022-09-11T19:43:14.470Z,1
2022-09-11T19:45:14.180Z,1
2022-09-11T19:49:21.110Z,1
2022-09-11T19:51:14.051Z,1
2022-09-11T19:53:20.840Z,1
2022-09-11T19:55:14.024Z,1
2022-09-11T19:57:14.486Z,1
2022-09-11T19:59:14.483Z,1
2022-09-11T20:01:17.607Z,1
2022-09-11T20:03:14.059Z,1
2022-09-11T20:05:17.219Z,1
2022-09-11T20:07:14.422Z,1
2022-09-11T20:09:30.222Z,0
2022-09-11T20:11:20.868Z,0
2022-09-11T20:13:21.329Z,0
2022-09-11T20:15:14.290Z,0
2022-09-11T20:17:14.332Z,0
2022-09-11T20:19:14.284Z,0
2022-09-11T20:21:14.045Z,0
2022-09-11T20:23:14.494Z,0
2022-09-11T20:25:14.325Z,0
2022-09-11T20:27:14.063Z,0
2022-09-11T20:29:14.059Z,0
2022-09-11T20:31:14.357Z,0
2022-09-11T20:33:17.649Z,0
2022-09-11T20:35:14.727Z,0
2022-09-11T20:37:17.415Z,1
2022-09-11T20:39:17.437Z,1
2022-09-11T20:41:14.448Z,1
2022-09-11T20:43:17.410Z,1
2022-09-11T20:45:14.280Z,1
2022-09-11T20:47:20.735Z,1
2022-09-11T20:49:14.206Z,1
2022-09-11T20:51:14.162Z,1
2022-09-11T20:55:14.039Z,1
2022-09-11T20:57:14.150Z,1
2022-09-11T20:59:14.139Z,1
2022-09-11T21:01:14.184Z,1
2022-09-11T21:03:14.172Z,1
2022-09-11T21:05:14.425Z,1
2022-09-11T21:07:14.165Z,1
2022-09-11T21:09:14.163Z,1
2022-09-11T21:11:14.211Z,1
2022-09-11T21:13:14.224Z,1
2022-09-11T21:15:17.468Z,1
2022-09-11T21:17:14.091Z,1
2022-09-11T21:19:14.216Z,1
2022-09-11T21:21:14.094Z,1
2022-09-11T21:23:20.846Z,1
2022-09-11T21:25:14.074Z,1
2022-09-11T21:27:14.459Z,1
2022-09-11T21:29:14.085Z,1
2022-09-11T21:31:14.063Z,1
2022-09-11T21:33:17.310Z,1
2022-09-11T21:35:14.242Z,1
2022-09-11T21:37:17.615Z,1
2022-09-11T21:39:17.581Z,1
2022-09-11T21:41:17.223Z,1
2022-09-11T21:43:14.385Z,1
2022-09-11T21:45:14.052Z,1
2022-09-11T21:47:14.185Z,1
2022-09-11T21:49:14.229Z,1
2022-09-11T21:51:14.150Z,1
2022-09-11T21:53:14.101Z,1
2022-09-11T21:55:14.257Z,1
2022-09-11T21:57:14.201Z,1
2022-09-11T21:59:14.126Z,1
2022-09-11T22:01:17.440Z,1
2022-09-11T22:03:14.057Z,1
2022-09-11T22:05:15.601Z,1
2022-09-11T22:07:17.546Z,1
2022-09-11T22:09:14.041Z,1
2022-09-11T22:11:17.616Z,1
2022-09-11T22:13:17.390Z,1
2022-09-11T22:15:14.282Z,1
2022-09-11T22:17:17.468Z,1
2022-09-11T22:19:14.093Z,1
2022-09-11T22:21:14.333Z,1
2022-09-11T22:23:14.496Z,1
2022-09-11T22:25:14.230Z,1
2022-09-11T22:27:14.068Z,1
2022-09-11T22:29:20.708Z,1
2022-09-11T22:31:14.202Z,1
2022-09-11T22:33:14.289Z,1
2022-09-11T22:35:14.067Z,1
2022-09-11T22:37:14.242Z,1
2022-09-11T22:39:14.211Z,1
2022-09-11T22:41:17.665Z,1
2022-09-11T22:43:17.583Z,1
2022-09-11T22:45:17.408Z,1
2022-09-11T22:49:13.966Z,1
2022-09-11T22:51:17.583Z,1
2022-09-11T22:53:17.402Z,1
2022-09-11T22:55:17.210Z,1
2022-09-11T22:59:14.195Z,1
2022-09-11T23:01:14.173Z,1
2022-09-11T23:03:14.073Z,1
2022-09-11T23:05:14.092Z,1
2022-09-11T23:09:20.837Z,1
2022-09-11T23:11:14.205Z,1
2022-09-11T23:15:14.034Z,1
2022-09-11T23:17:14.483Z,1
2022-09-11T23:19:14.351Z,1
2022-09-11T23:21:14.036Z,1
2022-09-11T23:23:14.375Z,1
2022-09-11T23:25:14.160Z,1
2022-09-11T23:27:14.213Z,1
2022-09-11T23:29:14.485Z,1
2022-09-11T23:31:14.134Z,1
2022-09-11T23:33:13.986Z,1
2022-09-11T23:35:17.651Z,1
2022-09-11T23:37:14.342Z,1
2022-09-11T23:39:17.585Z,1
2022-09-11T23:41:14.080Z,1
2022-09-11T23:43:13.967Z,1
2022-09-11T23:45:17.456Z,1
2022-09-11T23:47:20.955Z,1
2022-09-11T23:49:14.747Z,1
2022-09-11T23:51:14.047Z,1
2022-09-11T23:53:14.220Z,1
2022-09-11T23:55:14.506Z,1
2022-09-11T23:57:17.166Z,1
2022-09-11T23:59:14.286Z,1
